Time;durP1;ratioP1;P1;durP2;ratioP2;P2;SDS_P1;SDS_P2;PMS_P1;PMS_P2;Temp;Humidity;BMP_temperature;BMP_pressure;BME280_temperature;BME280_humidity;BME280_pressure;Samples;Min_cycle;Max_cycle;Signal;HPM_P1;HPM_P2
2023/08/11 00:00:08;;;;;;;3.10;1.20;;;12.30;99.90;;;;;;4998365;28;20497;-78
2023/08/11 00:02:35;;;;;;;2.17;1.02;;;;;;;;;;4998659;28;20037;-78
2023/08/11 00:05:02;;;;;;;2.63;1.00;;;;;;;;;;5002976;28;20029;-77
2023/08/11 00:07:28;;;;;;;2.67;1.52;;;;;;;;;;5007393;28;20014;-77
2023/08/11 00:09:54;;;;;;;3.47;1.30;;;;;;;;;;4997613;28;20033;-78
2023/08/11 00:12:20;;;;;;;2.28;0.90;;;;;;;;;;5000597;28;20037;-77
2023/08/11 00:14:47;;;;;;;3.08;1.63;;;;;;;;;;4988546;28;20040;-77
2023/08/11 00:17:13;;;;;;;2.20;1.17;;;;;;;;;;5001709;28;20082;-77
2023/08/11 00:19:39;;;;;;;4.07;1.17;;;;;;;;;;5003327;28;20037;-77
2023/08/11 00:22:09;;;;;;;3.03;1.30;;;;;;;;;;5005038;28;20041;-78
2023/08/11 00:24:35;;;;;;;1.58;1.02;;;;;;;;;;4989028;28;20014;-77
2023/08/11 00:27:04;;;;;;;6.55;1.65;;;12.20;99.90;;;;;;5002611;28;20025;-77
2023/08/11 00:29:31;;;;;;;2.35;1.10;;;;;;;;;;5003456;28;20295;-77
2023/08/11 00:31:58;;;;;;;4.32;1.60;;;;;;;;;;5002694;28;20375;-77
2023/08/11 00:34:23;;;;;;;1.67;0.70;;;12.40;99.90;;;;;;5008383;28;20030;-77
2023/08/11 00:36:49;;;;;;;2.45;1.25;;;;;;;;;;5006104;28;20041;-78
2023/08/11 00:39:15;;;;;;;4.68;2.20;;;;;;;;;;5006947;28;20033;-77
2023/08/11 00:41:41;;;;;;;3.28;1.25;;;12.20;99.90;;;;;;5006856;28;20022;-77
2023/08/11 00:44:07;;;;;;;3.55;1.52;;;;;;;;;;4988627;28;20033;-78
2023/08/11 00:46:34;;;;;;;2.92;1.55;;;;;;;;;;5005790;28;20542;-77
2023/08/11 00:49:00;;;;;;;1.88;0.80;;;;;;;;;;4996456;28;20032;-78
2023/08/11 00:51:27;;;;;;;1.77;0.95;;;;;;;;;;5005565;28;20415;-78
2023/08/11 00:53:53;;;;;;;3.25;1.50;;;;;;;;;;5006641;28;20541;-78
2023/08/11 00:56:22;;;;;;;1.95;1.13;;;12.00;99.90;;;;;;4987105;28;20511;-78
2023/08/11 00:58:49;;;;;;;2.08;1.05;;;;;;;;;;5004698;28;20045;-77
2023/08/11 01:01:15;;;;;;;3.33;1.45;;;;;;;;;;4982185;28;20038;-78
2023/08/11 01:03:43;;;;;;;2.55;1.33;;;12.10;99.90;;;;;;4998056;28;20041;-78
2023/08/11 01:06:09;;;;;;;2.65;1.05;;;;;;;;;;5001949;28;20422;-78
2023/08/11 01:08:38;;;;;;;1.80;0.95;;;;;;;;;;4985723;28;20034;-78
2023/08/11 01:11:40;;;;;;;2.17;1.20;;;12.10;99.90;;;;;;5002949;28;20062;-78
2023/08/11 01:14:17;;;;;;;1.90;0.95;;;11.70;99.90;;;;;;5000919;28;20059;-77
2023/08/11 01:16:45;;;;;;;2.33;1.00;;;;;;;;;;5004002;28;20069;-78
2023/08/11 01:19:15;;;;;;;1.35;0.77;;;11.70;99.90;;;;;;5001304;28;20030;-78
2023/08/11 01:21:41;;;;;;;3.88;1.00;;;;;;;;;;5003723;28;20132;-79
2023/08/11 01:24:07;;;;;;;2.63;1.33;;;;;;;;;;4998304;28;20534;-77
2023/08/11 01:26:33;;;;;;;1.65;1.00;;;;;;;;;;5004834;28;20523;-78
2023/08/11 01:28:59;;;;;;;2.15;1.08;;;;;;;;;;4986311;28;20026;-78
2023/08/11 01:31:25;;;;;;;1.60;0.90;;;;;;;;;;5004363;28;20076;-78
2023/08/11 01:33:52;;;;;;;2.42;1.10;;;;;;;;;;5005850;28;20049;-78
2023/08/11 01:36:18;;;;;;;1.85;1.20;;;;;;;;;;5002109;28;20559;-77
2023/08/11 01:38:44;;;;;;;4.35;1.48;;;;;;;;;;4984778;28;20032;-79
2023/08/11 01:41:11;;;;;;;2.63;1.60;;;;;;;;;;4984571;28;20695;-78
2023/08/11 01:43:38;;;;;;;1.77;0.90;;;;;;;;;;5000710;28;20514;-78
2023/08/11 01:46:04;;;;;;;1.63;0.90;;;;;;;;;;5003702;28;20053;-78
2023/08/11 01:48:31;;;;;;;3.55;1.30;;;;;;;;;;4981046;28;20037;-78
2023/08/11 01:50:57;;;;;;;2.35;1.02;;;;;;;;;;5004461;28;20034;-77
2023/08/11 01:53:23;;;;;;;4.20;1.25;;;;;;;;;;5011979;28;20069;-76
2023/08/11 01:55:49;;;;;;;4.80;1.00;;;11.30;99.90;;;;;;5009981;28;20052;-78
2023/08/11 01:58:15;;;;;;;3.80;1.08;;;;;;;;;;5012854;28;20060;-79
2023/08/11 02:00:41;;;;;;;2.90;1.52;;;;;;;;;;5007211;28;20030;-79
2023/08/11 02:03:08;;;;;;;2.58;1.17;;;;;;;;;;5000456;28;20041;-78
2023/08/11 02:05:34;;;;;;;2.50;1.13;;;;;;;;;;5000682;28;20030;-78
2023/08/11 02:08:02;;;;;;;2.38;1.20;;;;;;;;;;5006564;28;20030;-79
2023/08/11 02:10:28;;;;;;;1.90;0.93;;;;;;;;;;5010125;28;20089;-79
2023/08/11 02:12:53;;;;;;;5.10;1.90;;;;;;;;;;4992327;28;20149;-78
2023/08/11 02:15:19;;;;;;;2.45;1.02;;;;;;;;;;4994812;28;20038;-79
2023/08/11 02:17:45;;;;;;;5.60;1.00;;;;;;;;;;5019229;28;20032;-78
2023/08/11 02:22:46;;;;;;;2.40;0.90;;;;;;;;;;5026215;28;20036;-77
2023/08/11 02:25:12;;;;;;;3.28;1.85;;;;;;;;;;5026228;28;20038;-78
2023/08/11 02:27:38;;;;;;;2.67;1.00;;;;;;;;;;5021530;28;20268;-77
2023/08/11 02:30:05;;;;;;;3.40;1.52;;;;;;;;;;5022247;28;20022;-76
2023/08/11 02:32:32;;;;;;;3.17;1.27;;;;;;;;;;5016285;28;20046;-78
2023/08/11 02:34:58;;;;;;;2.65;1.27;;;;;;;;;;5012015;28;20029;-79
2023/08/11 02:37:24;;;;;;;2.92;1.33;;;;;;;;;;5011090;28;20017;-79
2023/08/11 02:39:50;;;;;;;1.42;0.93;;;;;;;;;;5004204;28;20084;-79
2023/08/11 02:42:16;;;;;;;1.90;1.05;;;;;;;;;;4992408;28;20038;-78
2023/08/11 02:44:42;;;;;;;2.95;1.52;;;;;;;;;;5003464;28;22092;-78
2023/08/11 02:47:08;;;;;;;2.03;0.75;;;;;;;;;;5002982;28;20030;-78
2023/08/11 02:49:33;;;;;;;3.80;1.40;;;11.70;99.90;;;;;;4987794;28;20597;-78
2023/08/11 02:51:59;;;;;;;2.25;0.95;;;;;;;;;;4994961;28;20030;-78
2023/08/11 02:54:25;;;;;;;2.03;1.13;;;;;;;;;;5003068;28;21411;-78
2023/08/11 02:56:51;;;;;;;1.42;1.13;;;;;;;;;;4976998;28;20041;-77
2023/08/11 02:59:17;;;;;;;4.80;1.35;;;;;;;;;;5001246;28;20066;-78
2023/08/11 03:01:44;;;;;;;2.35;1.10;;;;;;;;;;4993243;28;20083;-79
2023/08/11 03:04:11;;;;;;;3.55;1.10;;;;;;;;;;5000946;28;20034;-78
2023/08/11 03:06:37;;;;;;;2.97;1.58;;;;;;;;;;5000826;28;20023;-78
2023/08/11 03:09:03;;;;;;;2.22;1.38;;;;;;;;;;5002892;28;20124;-78
2023/08/11 03:11:29;;;;;;;2.83;1.35;;;;;;;;;;5001826;28;20057;-77
2023/08/11 03:13:55;;;;;;;1.85;0.90;;;;;;;;;;4984326;28;20045;-78
2023/08/11 03:16:22;;;;;;;3.05;1.10;;;11.00;99.90;;;;;;5001039;28;20041;-78
2023/08/11 03:18:48;;;;;;;2.10;1.10;;;;;;;;;;4985087;28;20045;-77
2023/08/11 03:21:14;;;;;;;4.38;1.50;;;;;;;;;;5006686;28;20518;-78
2023/08/11 03:23:40;;;;;;;3.15;1.25;;;;;;;;;;5004035;28;20117;-79
2023/08/11 03:26:06;;;;;;;3.08;1.23;;;;;;;;;;5002833;28;20049;-79
2023/08/11 03:28:32;;;;;;;4.00;1.40;;;;;;;;;;5001791;28;20231;-78
2023/08/11 03:30:59;;;;;;;2.75;1.40;;;10.90;99.90;;;;;;5005644;28;20029;-78
2023/08/11 03:33:25;;;;;;;3.05;1.33;;;10.90;99.90;;;;;;4989166;28;20036;-79
2023/08/11 03:35:50;;;;;;;2.92;1.95;;;;;;;;;;5004722;28;20042;-78
2023/08/11 03:38:17;;;;;;;3.38;1.25;;;;;;;;;;4983588;28;20086;-77
2023/08/11 03:40:42;;;;;;;2.72;1.25;;;;;;;;;;4988277;28;20060;-78
2023/08/11 03:43:08;;;;;;;1.98;1.20;;;;;;;;;;5002021;28;20494;-79
2023/08/11 03:45:35;;;;;;;3.13;1.58;;;;;;;;;;5003690;28;20577;-78
2023/08/11 03:48:01;;;;;;;2.83;1.45;;;;;;;;;;4991295;28;20088;-78
2023/08/11 03:50:27;;;;;;;3.20;1.42;;;;;;;;;;4990765;28;20034;-79
2023/08/11 03:52:53;;;;;;;2.58;1.15;;;;;;;;;;5008469;28;20022;-79
2023/08/11 03:55:19;;;;;;;3.45;1.77;;;;;;;;;;5008671;28;20025;-80
2023/08/11 03:57:45;;;;;;;3.17;1.23;;;;;;;;;;5011223;28;20037;-79
2023/08/11 04:00:15;;;;;;;5.43;1.60;;;;;;;;;;5002371;28;20029;-79
2023/08/11 04:02:44;;;;;;;1.98;1.00;;;;;;;;;;5006487;28;20971;-79
2023/08/11 04:05:10;;;;;;;2.03;0.80;;;10.80;99.90;;;;;;5011383;28;20026;-79
2023/08/11 04:07:39;;;;;;;2.60;1.33;;;10.50;99.90;;;;;;4992521;28;20145;-79
2023/08/11 04:10:05;;;;;;;2.45;1.00;;;;;;;;;;5010409;28;20084;-78
2023/08/11 04:12:34;;;;;;;1.77;0.77;;;;;;;;;;5004801;28;20052;-78
2023/08/11 04:15:00;;;;;;;6.85;1.20;;;;;;;;;;4996545;28;20194;-78
2023/08/11 04:17:26;;;;;;;1.92;1.08;;;;;;;;;;4988462;28;20112;-78
2023/08/11 04:19:53;;;;;;;2.83;1.50;;;;;;;;;;4995294;28;20105;-78
2023/08/11 04:22:19;;;;;;;1.73;0.95;;;;;;;;;;5000645;28;20026;-79
2023/08/11 04:24:45;;;;;;;2.85;1.38;;;;;;;;;;5009342;28;20522;-77
2023/08/11 04:27:11;;;;;;;3.17;1.58;;;;;;;;;;5000092;28;20099;-78
2023/08/11 04:29:38;;;;;;;2.45;1.20;;;;;;;;;;5004934;28;20058;-81
2023/08/11 04:32:04;;;;;;;2.47;1.45;;;;;;;;;;4978190;28;20038;-78
2023/08/11 04:34:31;;;;;;;2.42;1.10;;;;;;;;;;4981378;28;20040;-81
2023/08/11 04:36:59;;;;;;;3.53;1.40;;;;;;;;;;4998868;28;20119;-81
2023/08/11 04:39:25;;;;;;;2.70;1.50;;;11.20;99.90;;;;;;4965834;28;20117;-81
2023/08/11 04:41:50;;;;;;;3.65;1.70;;;10.90;99.90;;;;;;4985314;28;20100;-81
2023/08/11 04:44:16;;;;;;;8.52;1.92;;;;;;;;;;4977406;28;20375;-80
2023/08/11 04:46:42;;;;;;;2.67;1.63;;;;;;;;;;4982154;28;20026;-79
2023/08/11 04:49:08;;;;;;;3.80;1.83;;;;;;;;;;5029757;28;20361;-78
2023/08/11 04:51:34;;;;;;;4.20;1.35;;;;;;;;;;4987590;28;20030;-81
2023/08/11 04:54:02;;;;;;;3.38;1.65;;;;;;;;;;5007374;28;20489;-80
2023/08/11 04:56:28;;;;;;;2.40;1.40;;;;;;;;;;4994369;28;20080;-80
2023/08/11 04:58:55;;;;;;;3.88;1.63;;;;;;;;;;4993215;28;20100;-80
2023/08/11 05:01:22;;;;;;;2.72;1.63;;;11.30;99.90;;;;;;5010176;28;20026;-81
2023/08/11 05:03:49;;;;;;;5.88;1.65;;;;;;;;;;4988835;28;20081;-81
2023/08/11 05:06:16;;;;;;;4.40;1.95;;;;;;;;;;5014271;28;20024;-82
2023/08/11 05:08:42;;;;;;;3.55;1.77;;;;;;;;;;5009998;28;20025;-80
2023/08/11 05:11:09;;;;;;;4.22;2.33;;;;;;;;;;5018152;28;20034;-83
2023/08/11 05:13:35;;;;;;;3.88;1.60;;;;;;;;;;4997848;28;20064;-82
2023/08/11 05:16:01;;;;;;;7.78;1.10;;;11.00;99.90;;;;;;4995362;28;20030;-82
2023/08/11 05:18:27;;;;;;;3.03;1.60;;;;;;;;;;5001581;28;20036;-82
2023/08/11 05:20:53;;;;;;;2.78;1.27;;;;;;;;;;5012390;28;20030;-80
2023/08/11 05:23:19;;;;;;;4.13;2.22;;;;;;;;;;4991919;28;20856;-79
2023/08/11 05:25:45;;;;;;;3.38;1.50;;;;;;;;;;5003182;28;20029;-80
2023/08/11 05:28:11;;;;;;;3.10;1.63;;;;;;;;;;4996600;28;20343;-80
2023/08/11 05:30:38;;;;;;;4.20;1.80;;;;;;;;;;4992030;28;20056;-81
2023/08/11 05:33:04;;;;;;;4.90;2.20;;;;;;;;;;4983899;28;20042;-80
2023/08/11 05:35:30;;;;;;;8.05;2.17;;;;;;;;;;4984196;28;20454;-82
2023/08/11 05:38:01;;;;;;;2.92;1.88;;;;;;;;;;4966234;28;20044;-77
2023/08/11 05:40:27;;;;;;;4.40;2.08;;;;;;;;;;4986611;28;20098;-82
2023/08/11 05:42:53;;;;;;;3.88;2.17;;;;;;;;;;5010141;28;20355;-81
2023/08/11 05:45:19;;;;;;;3.10;1.70;;;;;;;;;;5006722;28;20029;-80
2023/08/11 05:47:45;;;;;;;7.30;2.08;;;;;;;;;;5005442;28;20033;-80
2023/08/11 05:50:12;;;;;;;8.13;2.60;;;;;;;;;;5011252;28;20022;-81
2023/08/11 05:52:38;;;;;;;4.18;2.30;;;;;;;;;;5010985;28;20034;-81
2023/08/11 05:55:04;;;;;;;5.28;2.38;;;;;;;;;;4978842;28;20041;-82
2023/08/11 05:57:30;;;;;;;5.22;2.47;;;;;;;;;;5001269;28;20030;-82
2023/08/11 05:59:56;;;;;;;4.10;2.22;;;;;;;;;;4994748;28;20034;-81
2023/08/11 06:02:22;;;;;;;5.47;2.35;;;;;;;;;;4992307;28;20042;-81
2023/08/11 06:04:51;;;;;;;3.17;1.77;;;;;;;;;;4968602;28;20034;-82
2023/08/11 06:07:17;;;;;;;2.83;1.80;;;;;;;;;;4998493;28;20121;-82
2023/08/11 06:09:44;;;;;;;4.90;2.55;;;;;;;;;;5001022;28;20026;-83
2023/08/11 06:12:10;;;;;;;4.85;2.25;;;;;;;;;;4974970;28;20030;-84
2023/08/11 06:14:36;;;;;;;5.00;2.60;;;;;;;;;;4977703;28;20061;-79
2023/08/11 06:17:03;;;;;;;4.25;2.45;;;;;;;;;;5013767;28;20055;-81
2023/08/11 06:19:29;;;;;;;4.05;2.47;;;;;;;;;;5010761;28;20457;-83
2023/08/11 06:21:55;;;;;;;3.72;2.50;;;;;;;;;;5007360;28;20093;-80
2023/08/11 06:24:22;;;;;;;7.25;3.35;;;;;;;;;;5009068;28;20174;-81
2023/08/11 06:26:48;;;;;;;3.42;2.15;;;;;;;;;;4999276;28;20029;-80
2023/08/11 06:29:15;;;;;;;8.20;2.55;;;;;;;;;;4994316;28;20022;-82
2023/08/11 06:31:42;;;;;;;4.45;2.08;;;;;;;;;;5013836;28;20488;-81
2023/08/11 06:34:08;;;;;;;4.20;2.47;;;;;;;;;;5002115;28;20027;-79
2023/08/11 06:36:35;;;;;;;4.05;2.08;;;;;;;;;;4991710;28;20041;-81
2023/08/11 06:39:01;;;;;;;4.72;2.72;;;;;;;;;;4985833;28;20038;-82
2023/08/11 06:41:28;;;;;;;4.13;2.58;;;;;;;;;;4998822;28;20041;-82
2023/08/11 06:43:54;;;;;;;3.47;2.35;;;;;;;;;;4980887;28;20049;-79
2023/08/11 06:46:20;;;;;;;3.47;2.13;;;;;;;;;;4974836;28;20172;-81
2023/08/11 06:48:46;;;;;;;7.07;1.77;;;;;;;;;;4989554;28;20549;-79
2023/08/11 06:51:12;;;;;;;3.10;2.03;;;;;;;;;;4994630;28;20093;-82
2023/08/11 06:53:38;;;;;;;3.30;2.08;;;;;;;;;;4991771;28;20022;-82
2023/08/11 06:56:04;;;;;;;3.20;1.80;;;;;;;;;;4985572;28;20108;-82
2023/08/11 06:58:30;;;;;;;3.78;2.22;;;;;;;;;;4988977;28;20056;-81
2023/08/11 07:00:56;;;;;;;3.90;1.90;;;16.00;99.90;;;;;;4989230;28;20037;-81
2023/08/11 07:03:22;;;;;;;11.77;1.95;;;;;;;;;;4968029;28;20034;-82
2023/08/11 07:05:51;;;;;;;3.33;1.45;;;17.10;99.90;;;;;;4997313;28;20037;-82
2023/08/11 07:08:19;;;;;;;4.07;1.80;;;;;;;;;;4982398;28;20978;-78
2023/08/11 07:10:45;;;;;;;3.45;1.30;;;;;;;;;;4989436;28;20120;-82
2023/08/11 07:13:11;;;;;;;3.58;1.35;;;;;;;;;;5002867;28;20033;-83
2023/08/11 07:15:40;;;;;;;2.85;1.30;;;17.60;99.90;;;;;;4992090;28;20042;-79
2023/08/11 07:18:06;;;;;;;2.00;1.02;;;;;;;;;;4984951;28;20182;-81
2023/08/11 07:20:32;;;;;;;2.80;1.55;;;;;;;;;;5001832;28;20193;-81
2023/08/11 07:22:58;;;;;;;2.88;1.50;;;;;;;;;;5003650;28;20179;-81
2023/08/11 07:25:24;;;;;;;10.88;2.60;;;18.00;99.90;;;;;;4995783;28;20033;-84
2023/08/11 07:27:50;;;;;;;5.43;1.52;;;;;;;;;;5014644;28;20026;-81
2023/08/11 07:30:16;;;;;;;2.63;1.02;;;;;;;;;;4983836;28;20033;-82
2023/08/11 07:32:42;;;;;;;4.80;1.52;;;;;;;;;;5002895;28;20526;-80
2023/08/11 07:35:08;;;;;;;2.65;1.33;;;;;;;;;;4984327;28;21251;-82
2023/08/11 07:37:34;;;;;;;2.00;1.10;;;;;;;;;;4993120;28;20661;-82
2023/08/11 07:40:00;;;;;;;2.85;1.40;;;;;;;;;;5004706;28;20322;-82
2023/08/11 07:42:26;;;;;;;4.43;1.70;;;;;;;;;;5013013;28;20046;-78
2023/08/11 07:44:52;;;;;;;1.60;1.08;;;;;;;;;;5034374;28;20038;-79
2023/08/11 07:47:19;;;;;;;2.80;1.67;;;;;;;;;;5005944;28;20072;-80
2023/08/11 07:49:45;;;;;;;3.42;1.63;;;;;;;;;;5015699;28;20033;-80
2023/08/11 07:52:11;;;;;;;3.28;1.35;;;;;;;;;;4995773;28;20597;-82
2023/08/11 07:54:37;;;;;;;2.88;1.20;;;;;;;;;;5012838;28;20470;-81
2023/08/11 07:57:03;;;;;;;2.88;1.33;;;;;;;;;;5006529;28;20281;-82
2023/08/11 07:59:29;;;;;;;2.60;1.45;;;;;;;;;;5006761;28;20036;-83
2023/08/11 08:01:55;;;;;;;2.50;1.38;;;;;;;;;;5010683;28;21400;-83
2023/08/11 08:04:21;;;;;;;2.53;1.20;;;;;;;;;;5005106;28;20105;-82
2023/08/11 08:06:47;;;;;;;3.20;1.15;;;;;;;;;;5001856;28;20034;-82
2023/08/11 08:09:14;;;;;;;3.10;1.50;;;;;;;;;;5006233;28;20209;-81
2023/08/11 08:11:42;;;;;;;2.97;1.27;;;;;;;;;;4988590;28;20573;-79
2023/08/11 08:14:09;;;;;;;1.90;0.70;;;;;;;;;;5001136;28;20245;-82
2023/08/11 08:16:35;;;;;;;3.45;1.10;;;;;;;;;;5005187;28;20045;-80
2023/08/11 08:19:01;;;;;;;2.38;1.17;;;;;;;;;;5008501;28;20027;-84
2023/08/11 08:21:27;;;;;;;2.63;1.52;;;20.50;99.90;;;;;;4976916;28;20513;-80
2023/08/11 08:23:53;;;;;;;1.90;0.77;;;;;;;;;;5011927;28;20025;-81
2023/08/11 08:26:19;;;;;;;1.77;0.77;;;;;;;;;;5010520;28;20023;-83
2023/08/11 08:28:45;;;;;;;3.40;1.05;;;;;;;;;;5003983;28;20108;-81
2023/08/11 08:31:11;;;;;;;1.88;0.85;;;;;;;;;;5003194;28;20030;-82
2023/08/11 08:33:37;;;;;;;3.03;1.48;;;;;;;;;;4998436;28;20514;-81
2023/08/11 08:36:03;;;;;;;2.38;0.85;;;;;;;;;;4987169;28;20101;-81
2023/08/11 08:38:29;;;;;;;1.85;0.75;;;;;;;;;;5011074;28;20117;-80
2023/08/11 08:40:55;;;;;;;2.58;0.88;;;23.70;99.90;;;;;;5011898;28;20053;-80
2023/08/11 08:43:21;;;;;;;2.08;0.65;;;23.20;99.90;;;;;;5007541;28;20017;-82
2023/08/11 08:45:50;;;;;;;1.23;0.43;;;;;;;;;;5011091;28;20049;-81
2023/08/11 08:48:20;;;;;;;2.00;0.55;;;;;;;;;;5010289;28;20560;-82
2023/08/11 08:50:46;;;;;;;2.08;0.75;;;;;;;;;;4994172;28;20037;-80
2023/08/11 08:53:12;;;;;;;4.25;0.77;;;;;;;;;;5008295;28;20041;-82
2023/08/11 08:55:38;;;;;;;1.48;0.60;;;;;;;;;;5015269;28;20026;-81
2023/08/11 08:58:04;;;;;;;4.05;1.10;;;35.70;93.90;;;;;;4990997;28;20053;-81
2023/08/11 09:00:30;;;;;;;1.55;0.50;;;;;;;;;;4998985;28;20114;-80
2023/08/11 09:02:58;;;;;;;1.98;0.73;;;;;;;;;;4995471;28;20022;-82
2023/08/11 09:05:26;;;;;;;1.73;0.73;;;;;;;;;;4999471;28;20030;-82
2023/08/11 09:07:52;;;;;;;1.15;0.50;;;;;;;;;;4970784;28;20033;-82
2023/08/11 09:10:19;;;;;;;1.10;0.40;;;;;;;;;;4990569;28;20109;-79
2023/08/11 09:12:44;;;;;;;0.80;0.32;;;;;;;;;;4995980;28;20014;-82
2023/08/11 09:15:11;;;;;;;1.13;0.40;;;;;;;;;;4998578;28;20052;-79
2023/08/11 09:17:38;;;;;;;1.20;0.40;;;;;;;;;;4990640;28;20022;-81
2023/08/11 09:20:06;;;;;;;1.00;0.45;;;;;;;;;;5005413;28;20026;-77
2023/08/11 09:22:32;;;;;;;1.08;0.50;;;;;;;;;;5004412;28;20038;-82
2023/08/11 09:24:58;;;;;;;0.80;0.40;;;;;;;;;;4990710;28;20715;-80
2023/08/11 09:27:24;;;;;;;0.68;0.50;;;;;;;;;;4994129;28;20060;-79
2023/08/11 09:29:50;;;;;;;3.38;0.95;;;;;;;;;;4995244;28;20034;-80
2023/08/11 09:32:16;;;;;;;2.92;1.17;;;;;;;;;;4972575;28;20053;-81
2023/08/11 09:34:44;;;;;;;3.15;0.90;;;;;;;;;;5004247;28;20068;-81
2023/08/11 09:37:10;;;;;;;1.58;0.45;;;;;;;;;;4983714;28;20403;-81
2023/08/11 09:39:37;;;;;;;2.17;0.57;;;;;;;;;;4975813;28;20022;-79
2023/08/11 09:42:04;;;;;;;1.58;0.85;;;;;;;;;;4982850;28;20080;-79
2023/08/11 09:44:30;;;;;;;1.40;0.50;;;;;;;;;;4998183;28;20033;-81
2023/08/11 09:46:56;;;;;;;0.80;0.45;;;;;;;;;;5002403;28;20022;-79
2023/08/11 09:49:22;;;;;;;0.85;0.40;;;;;;;;;;4974441;28;20040;-79
2023/08/11 09:51:50;;;;;;;4.03;0.70;;;;;;;;;;4994548;28;20029;-79
2023/08/11 09:54:17;;;;;;;1.45;0.80;;;;;;;;;;4998815;28;20030;-81
2023/08/11 09:56:44;;;;;;;0.40;0.30;;;;;;;;;;5001286;28;20037;-78
2023/08/11 09:59:15;;;;;;;1.08;0.52;;;;;;;;;;5001883;28;20174;-82
2023/08/11 10:01:42;;;;;;;0.47;0.30;;;;;;;;;;4980149;28;20030;-78
2023/08/11 10:04:11;;;;;;;0.88;0.40;;;;;;;;;;4999743;28;20037;-79
2023/08/11 10:06:53;;;;;;;2.70;0.57;;;;;;;;;;5091808;27;20363;-82
2023/08/11 10:09:21;;;;;;;0.88;0.35;;;;;;;;;;5093899;28;20056;-80
2023/08/11 10:11:47;;;;;;;1.13;0.40;;;;;;;;;;5094021;28;20051;-81
2023/08/11 10:16:44;;;;;;;3.33;0.50;;;;;;;;;;5009557;28;20054;-81
2023/08/11 10:19:11;;;;;;;0.75;0.47;;;;;;;;;;5013705;28;20064;-80
2023/08/11 10:21:38;;;;;;;0.40;0.30;;;;;;;;;;5015996;28;20044;-82
2023/08/11 10:24:04;;;;;;;1.25;0.50;;;;;;;;;;5011140;28;20032;-79
2023/08/11 10:26:31;;;;;;;0.93;0.65;;;;;;;;;;5009016;28;20099;-81
2023/08/11 10:28:58;;;;;;;7.70;0.80;;;;;;;;;;5006793;28;20076;-82
2023/08/11 10:31:25;;;;;;;1.50;0.57;;;;;;;;;;5021264;28;20033;-79
2023/08/11 10:33:51;;;;;;;1.40;0.47;;;;;;;;;;5022074;28;20037;-81
2023/08/11 10:36:17;;;;;;;1.75;0.52;;;;;;;;;;5032111;28;20032;-81
2023/08/11 10:38:45;;;;;;;4.65;0.70;;;;;;;;;;5030099;28;20807;-80
2023/08/11 10:41:11;;;;;;;1.98;0.50;;;;;;;;;;5014774;28;20038;-80
2023/08/11 10:43:40;;;;;;;2.92;0.85;;;;;;;;;;5015295;28;20120;-79
2023/08/11 10:46:45;;;;;;;1.70;0.95;;;;;;;;;;5010869;28;20248;-82
2023/08/11 10:49:10;;;;;;;5.22;0.88;;;;;;;;;;4983496;28;20102;-78
2023/08/11 10:51:39;;;;;;;6.00;0.60;;;;;;;;;;5000445;28;20035;-77
2023/08/11 10:54:19;;;;;;;1.27;0.52;;;;;;;;;;4991819;28;20490;-84
2023/08/11 10:56:46;;;;;;;1.67;0.50;;;;;;;;;;5024523;28;20520;-82
2023/08/11 10:59:12;;;;;;;1.23;0.50;;;;;;;;;;5040538;28;20445;-81
2023/08/11 11:01:42;;;;;;;4.35;0.60;;;;;;;;;;5019306;28;20061;-82
2023/08/11 11:04:09;;;;;;;0.70;0.40;;;;;;;;;;5021333;28;20052;-82
2023/08/11 11:06:35;;;;;;;2.42;0.40;;;;;;;;;;4997067;28;20056;-80
2023/08/11 11:09:03;;;;;;;1.92;0.40;;;;;;;;;;5020352;28;20033;-81
2023/08/11 11:11:38;;;;;;;1.50;0.73;;;;;;;;;;5022230;28;20581;-82
2023/08/11 11:14:05;;;;;;;2.88;0.40;;;;;;;;;;5018950;28;20029;-81
2023/08/11 11:16:32;;;;;;;0.98;0.60;;;;;;;;;;5009683;28;20038;-81
2023/08/11 11:18:59;;;;;;;1.05;0.50;;;;;;;;;;5008870;28;20101;-78
2023/08/11 11:21:26;;;;;;;1.85;0.50;;;;;;;;;;5000493;28;20022;-80
2023/08/11 11:23:52;;;;;;;1.17;0.45;;;;;;;;;;4997869;28;20266;-77
2023/08/11 11:26:22;;;;;;;1.23;0.60;;;;;;;;;;5008795;28;20075;-81
2023/08/11 11:28:50;;;;;;;1.05;0.45;;;;;;;;;;5000618;28;20042;-80
2023/08/11 11:31:16;;;;;;;0.82;0.22;;;;;;;;;;4993436;28;20034;-79
2023/08/11 11:33:43;;;;;;;2.63;0.40;;;;;;;;;;4990500;28;20042;-81
2023/08/11 11:36:09;;;;;;;4.68;0.65;;;;;;;;;;5001061;28;20041;-81
2023/08/11 11:38:35;;;;;;;0.73;0.32;;;;;;;;;;5001503;28;20186;-78
2023/08/11 11:41:01;;;;;;;1.70;0.50;;;;;;;;;;4995692;28;20760;-78
2023/08/11 11:43:27;;;;;;;1.45;0.45;;;;;;;;;;5010258;28;20038;-81
2023/08/11 11:45:54;;;;;;;0.70;0.22;;;;;;;;;;4988929;28;21483;-78
2023/08/11 11:48:21;;;;;;;0.73;0.30;;;;;;;;;;4991025;28;20518;-80
2023/08/11 11:50:47;;;;;;;1.15;0.68;;;;;;;;;;5001301;28;20034;-82
2023/08/11 11:53:13;;;;;;;4.55;0.55;;;;;;;;;;5002531;28;20037;-81
2023/08/11 11:55:46;;;;;;;0.95;0.30;;;;;;;;;;4976054;28;20050;-81
2023/08/11 11:58:15;;;;;;;0.90;0.30;;;;;;;;;;4998947;28;20050;-82
2023/08/11 12:00:41;;;;;;;2.00;0.57;;;;;;;;;;4988556;28;20580;-81
2023/08/11 12:03:09;;;;;;;1.77;0.60;;;;;;;;;;5012533;28;20026;-79
2023/08/11 12:05:35;;;;;;;0.95;0.70;;;;;;;;;;4995860;28;20041;-81
2023/08/11 12:08:16;;;;;;;2.58;0.80;;;;;;;;;;4989163;28;20045;-81
2023/08/11 12:10:44;;;;;;;1.27;0.40;;;;;;;;;;4985252;28;20037;-78
2023/08/11 12:13:11;;;;;;;1.52;0.60;;;;;;;;;;4998248;28;20072;-81
2023/08/11 12:15:38;;;;;;;1.60;0.60;;;;;;;;;;5009529;28;20030;-80
2023/08/11 12:21:09;;;;;;;3.42;0.50;;;;;;;;;;4984650;28;20128;-81
2023/08/11 12:23:35;;;;;;;2.42;0.50;;;;;;;;;;4984996;28;20060;-81
2023/08/11 12:26:01;;;;;;;1.83;0.45;;;;;;;;;;5013461;28;20482;-80
2023/08/11 12:28:27;;;;;;;1.95;0.52;;;;;;;;;;4996502;28;20761;-80
2023/08/11 12:30:53;;;;;;;1.60;0.50;;;;;;;;;;4995005;28;20026;-81
2023/08/11 12:33:20;;;;;;;0.80;0.50;;;;;;;;;;4998264;28;20030;-80
2023/08/11 12:35:47;;;;;;;2.45;0.50;;;;;;;;;;4997560;28;20044;-79
2023/08/11 12:38:13;;;;;;;1.98;0.50;;;;;;;;;;4987648;28;20098;-78
2023/08/11 12:40:43;;;;;;;1.60;0.88;;;;;;;;;;5000644;28;20109;-80
2023/08/11 12:43:09;;;;;;;3.53;0.52;;;;;;;;;;5019562;28;20022;-79
2023/08/11 12:45:35;;;;;;;1.05;0.55;;;;;;;;;;4997789;28;20042;-79
2023/08/11 12:48:02;;;;;;;1.85;0.70;;;;;;;;;;4994029;28;20026;-79
2023/08/11 12:50:28;;;;;;;3.35;1.77;;;;;;;;;;4992012;28;20529;-79
2023/08/11 12:52:55;;;;;;;3.10;0.77;;;;;;;;;;4997475;28;20057;-80
2023/08/11 12:55:22;;;;;;;1.67;0.60;;;;;;;;;;5004725;28;20041;-81
2023/08/11 12:57:48;;;;;;;1.92;0.52;;;;;;;;;;4995737;28;20040;-80
2023/08/11 13:00:14;;;;;;;1.63;0.68;;;;;;;;;;4985180;28;20033;-80
2023/08/11 13:02:40;;;;;;;0.55;0.40;;;;;;;;;;4982716;28;20026;-80
2023/08/11 13:05:06;;;;;;;1.70;0.70;;;;;;;;;;4979426;28;20391;-81
2023/08/11 13:07:32;;;;;;;1.33;0.77;;;;;;;;;;4980685;28;20125;-80
2023/08/11 13:09:58;;;;;;;1.55;0.60;;;;;;;;;;4979265;28;20029;-80
2023/08/11 13:12:24;;;;;;;2.03;0.80;;;;;;;;;;4978329;28;20068;-81
2023/08/11 13:14:52;;;;;;;2.42;0.50;;;;;;;;;;4965864;28;20505;-79
2023/08/11 13:17:18;;;;;;;0.80;0.47;;;;;;;;;;4983869;28;20536;-81
2023/08/11 13:19:44;;;;;;;1.38;0.77;;;;;;;;;;4981252;28;20030;-79
2023/08/11 13:22:10;;;;;;;9.70;1.02;;;;;;;;;;4988451;28;20030;-79
2023/08/11 13:24:36;;;;;;;1.40;0.43;;;;;;;;;;4993994;28;20026;-79
2023/08/11 13:27:02;;;;;;;1.27;0.43;;;;;;;;;;4992140;28;20339;-80
2023/08/11 13:29:28;;;;;;;1.73;0.60;;;;;;;;;;4990111;28;20033;-78
2023/08/11 13:31:54;;;;;;;0.90;0.60;;;;;;;;;;5004521;28;20874;-79
2023/08/11 13:34:20;;;;;;;1.45;0.50;;;;;;;;;;4993639;28;20065;-78
2023/08/11 13:36:47;;;;;;;2.63;0.57;;;;;;;;;;4990417;28;20149;-84
2023/08/11 13:39:13;;;;;;;1.17;0.68;;;;;;;;;;4970158;28;20184;-81
2023/08/11 13:41:39;;;;;;;1.05;0.63;;;;;;;;;;4992173;28;20026;-79
2023/08/11 13:44:06;;;;;;;1.52;0.57;;;;;;;;;;4991978;28;20034;-80
2023/08/11 13:46:32;;;;;;;0.77;0.40;;;;;;;;;;5003209;28;20037;-82
2023/08/11 13:48:58;;;;;;;1.00;0.50;;;;;;;;;;4999678;28;20026;-80
2023/08/11 13:51:25;;;;;;;2.90;0.50;;;;;;;;;;4994476;28;20407;-82
2023/08/11 13:53:51;;;;;;;3.38;0.90;;;;;;;;;;4996165;28;20354;-80
2023/08/11 13:56:17;;;;;;;2.15;0.75;;;;;;;;;;4976070;28;20591;-79
2023/08/11 13:58:43;;;;;;;1.00;0.40;;;;;;;;;;4998185;28;20454;-80
2023/08/11 14:01:09;;;;;;;1.73;0.70;;;;;;;;;;4992450;28;20034;-79
2023/08/11 14:03:35;;;;;;;0.43;0.20;;;;;;;;;;5004599;28;20037;-81
2023/08/11 14:06:01;;;;;;;1.52;0.65;;;;;;;;;;4997887;28;20110;-79
2023/08/11 14:08:27;;;;;;;1.90;0.68;;;;;;;;;;4975094;28;20138;-80
2023/08/11 14:10:53;;;;;;;1.45;0.77;;;;;;;;;;5004607;28;20038;-81
2023/08/11 14:13:27;;;;;;;2.30;0.60;;;;;;;;;;4985642;28;20498;-79
2023/08/11 14:15:53;;;;;;;3.28;0.82;;;;;;;;;;4975947;28;20280;-80
2023/08/11 14:18:20;;;;;;;0.90;0.55;;;;;;;;;;4986540;28;20573;-80
2023/08/11 14:20:46;;;;;;;1.25;0.52;;;;;;;;;;4991253;28;20030;-81
2023/08/11 14:23:12;;;;;;;1.13;0.57;;;;;;;;;;5004065;28;20022;-78
2023/08/11 14:25:39;;;;;;;2.63;0.80;;;;;;;;;;5011267;28;20040;-80
2023/08/11 14:28:06;;;;;;;1.05;0.43;;;29.10;97.70;;;;;;5016752;28;20030;-81
2023/08/11 14:30:32;;;;;;;1.15;0.52;;;;;;;;;;5025468;28;20097;-79
2023/08/11 14:32:59;;;;;;;2.47;0.55;;;;;;;;;;4990109;28;20815;-81
2023/08/11 14:38:47;;;;;;;1.58;0.75;;;;;;;;;;4996481;28;20067;-82
2023/08/11 14:41:13;;;;;;;3.22;0.70;;;;;;;;;;4992575;28;20026;-77